Time;durP1;ratioP1;P1;durP2;ratioP2;P2;SDS_P1;SDS_P2;PMS_P1;PMS_P2;Temp;Humidity;BMP_temperature;BMP_pressure;BME280_temperature;BME280_humidity;BME280_pressure;Samples;Min_cycle;Max_cycle;Signal;HPM_P1;HPM_P2
2023/09/30 00:01:23;;;;;;;9.18;3.70;;;12.10;99.90;;;11.38;100.00;102196.38;4187501;28;20420;-82
2023/09/30 00:03:23;;;;;;;11.40;3.00;;;12.10;99.90;;;11.32;100.00;102210.09;4192548;28;20025;-82
2023/09/30 00:05:24;;;;;;;10.65;2.92;;;12.10;99.90;;;11.30;100.00;102209.34;4186060;28;20068;-82
2023/09/30 00:07:26;;;;;;;10.88;3.50;;;12.10;99.90;;;11.34;100.00;102221.38;4198585;28;20029;-82
2023/09/30 00:09:27;;;;;;;11.55;4.18;;;12.00;99.90;;;11.35;100.00;102220.41;4189238;28;20442;-82
2023/09/30 00:11:28;;;;;;;10.00;2.70;;;12.10;99.90;;;11.33;100.00;102224.94;4203628;28;20033;-82
2023/09/30 00:13:28;;;;;;;9.98;3.08;;;12.10;99.90;;;11.35;100.00;102226.50;4193373;28;20084;-82
2023/09/30 00:15:29;;;;;;;8.43;3.55;;;12.10;99.90;;;11.42;100.00;102227.69;4187058;28;20044;-82
2023/09/30 00:17:30;;;;;;;10.07;3.47;;;12.20;99.90;;;11.53;100.00;102222.38;4200751;28;20028;-82
2023/09/30 00:19:33;;;;;;;11.13;3.38;;;12.20;99.90;;;11.64;100.00;102224.13;4198033;28;20373;-82
2023/09/30 00:21:33;;;;;;;8.45;2.95;;;12.30;99.90;;;11.71;100.00;102222.69;4187060;28;20025;-82
2023/09/30 00:23:34;;;;;;;6.10;2.90;;;12.40;99.90;;;11.75;100.00;102232.03;4197499;28;20017;-82
2023/09/30 00:25:35;;;;;;;7.20;2.92;;;12.50;99.90;;;11.81;100.00;102244.75;4185603;28;20029;-82
2023/09/30 00:27:37;;;;;;;12.52;2.95;;;12.50;99.90;;;11.87;100.00;102249.53;4191827;28;20032;-82
2023/09/30 00:29:37;;;;;;;6.78;3.15;;;12.50;99.90;;;11.95;100.00;102257.66;4203434;28;20448;-82
2023/09/30 00:31:39;;;;;;;9.75;3.10;;;12.60;99.90;;;12.01;100.00;102258.94;4203265;28;20091;-82
2023/09/30 00:33:40;;;;;;;7.70;3.15;;;12.70;99.90;;;12.07;100.00;102259.28;4203347;28;20021;-82
2023/09/30 00:35:40;;;;;;;10.60;3.90;;;12.70;99.90;;;12.14;100.00;102244.56;4197708;28;20040;-82
2023/09/30 00:37:42;;;;;;;13.55;3.67;;;12.80;99.90;;;12.16;100.00;102239.97;4185571;28;20024;-81
2023/09/30 00:39:44;;;;;;;8.25;3.95;;;12.90;99.90;;;12.23;100.00;102250.06;4187839;28;20045;-82
2023/09/30 00:41:45;;;;;;;8.77;3.35;;;12.90;99.90;;;12.27;100.00;102256.78;4187885;28;20032;-82
2023/09/30 00:43:48;;;;;;;13.77;3.65;;;12.90;99.90;;;12.25;100.00;102256.88;4202033;28;20570;-82
2023/09/30 00:45:57;;;;;;;10.63;4.00;;;12.90;99.90;;;12.25;100.00;102250.75;4193820;28;20075;-82
2023/09/30 00:47:58;;;;;;;12.95;3.55;;;13.00;99.90;;;12.24;100.00;102246.44;4185410;28;20031;-81
2023/09/30 00:50:00;;;;;;;9.55;2.97;;;12.90;99.90;;;12.19;100.00;102260.88;4201328;28;20028;-81
2023/09/30 00:52:02;;;;;;;8.68;3.45;;;12.90;99.90;;;12.13;100.00;102245.53;4202907;28;20037;-81
2023/09/30 00:54:05;;;;;;;7.25;3.55;;;12.90;99.90;;;12.11;100.00;102257.22;4192112;28;20029;-81
2023/09/30 00:56:06;;;;;;;11.55;2.95;;;12.80;99.90;;;12.05;100.00;102258.56;4185241;28;20028;-82
2023/09/30 00:58:07;;;;;;;6.68;2.47;;;12.80;99.90;;;12.06;100.00;102257.63;4201254;28;20027;-81
2023/09/30 01:00:11;;;;;;;9.98;3.60;;;12.80;99.90;;;12.07;100.00;102264.56;4191318;28;20107;-81
2023/09/30 01:02:12;;;;;;;6.38;2.53;;;12.80;99.90;;;12.12;100.00;102265.03;4201843;28;20399;-81
2023/09/30 01:04:14;;;;;;;9.48;2.70;;;12.80;99.90;;;12.13;100.00;102256.13;4199986;28;20025;-81
2023/09/30 01:06:15;;;;;;;13.55;4.07;;;12.80;99.90;;;12.16;100.00;102255.00;4185201;28;20036;-81
2023/09/30 01:08:19;;;;;;;14.13;3.20;;;12.90;99.90;;;12.20;100.00;102251.16;4186324;28;20029;-81
2023/09/30 01:10:21;;;;;;;10.23;3.50;;;12.90;99.90;;;12.19;100.00;102255.59;4195080;28;20510;-81
2023/09/30 01:12:21;;;;;;;6.55;2.15;;;13.00;99.90;;;12.19;100.00;102252.94;4184805;28;20029;-81
2023/09/30 01:14:40;;;;;;;10.65;2.85;;;12.90;99.90;;;12.18;100.00;102251.25;4201177;28;20054;-81
2023/09/30 01:16:41;;;;;;;8.77;2.47;;;12.90;99.90;;;12.15;100.00;102250.72;4192833;28;20024;-81
2023/09/30 01:18:42;;;;;;;8.00;2.92;;;12.80;99.90;;;12.08;100.00;102247.75;4190922;28;20012;-81
2023/09/30 01:20:43;;;;;;;7.43;2.50;;;12.80;99.90;;;12.03;100.00;102249.94;4187338;28;20100;-81
2023/09/30 01:22:44;;;;;;;12.73;3.55;;;12.80;99.90;;;11.98;100.00;102240.69;4186387;28;20032;-81
2023/09/30 01:24:47;;;;;;;18.52;3.38;;;12.70;99.90;;;11.91;100.00;102240.38;4185744;28;20056;-81
2023/09/30 01:26:48;;;;;;;11.02;2.72;;;12.70;99.90;;;11.86;100.00;102226.69;4185903;28;20021;-81
2023/09/30 01:28:49;;;;;;;9.68;3.25;;;12.60;99.90;;;11.82;100.00;102220.00;4185838;28;20017;-81
2023/09/30 01:30:51;;;;;;;12.55;2.70;;;12.60;99.90;;;11.79;100.00;102214.13;4185890;28;20507;-81
2023/09/30 01:32:52;;;;;;;11.60;3.42;;;12.50;99.90;;;11.76;100.00;102217.88;4185860;28;20048;-82
2023/09/30 01:34:52;;;;;;;9.07;2.80;;;12.50;99.90;;;11.75;100.00;102221.47;4196202;28;20032;-81
2023/09/30 01:36:53;;;;;;;8.30;2.95;;;12.50;99.90;;;11.72;100.00;102223.53;4187201;28;20021;-82
2023/09/30 01:38:54;;;;;;;7.68;2.80;;;12.40;99.90;;;11.67;100.00;102226.53;4188984;28;20103;-81
2023/09/30 01:40:55;;;;;;;8.57;2.97;;;12.40;99.90;;;11.59;100.00;102219.22;4184682;28;20468;-82
2023/09/30 01:42:57;;;;;;;9.07;2.97;;;12.40;99.90;;;11.55;100.00;102223.09;4179233;28;20029;-81
2023/09/30 01:44:58;;;;;;;5.80;2.78;;;12.30;99.90;;;11.50;100.00;102221.75;4217746;28;20156;-82
2023/09/30 01:46:58;;;;;;;7.50;2.78;;;12.20;99.90;;;11.42;100.00;102225.06;4200843;28;20499;-82
2023/09/30 01:48:59;;;;;;;9.00;3.05;;;12.20;99.90;;;11.38;100.00;102233.38;4201208;28;20028;-81
2023/09/30 01:51:01;;;;;;;11.38;3.10;;;12.20;99.90;;;11.35;100.00;102238.91;4202211;28;20033;-81
2023/09/30 01:53:02;;;;;;;9.25;2.92;;;12.10;99.90;;;11.30;100.00;102227.84;4186348;28;20063;-81
2023/09/30 01:55:03;;;;;;;20.58;4.32;;;12.00;99.90;;;11.27;100.00;102220.16;4185389;28;20393;-82
2023/09/30 01:57:04;;;;;;;13.02;3.78;;;12.00;99.90;;;11.23;100.00;102224.84;4185659;28;20037;-82
2023/09/30 01:59:04;;;;;;;13.48;4.70;;;12.00;99.90;;;11.21;100.00;102218.03;4185410;28;20115;-81
2023/09/30 02:01:06;;;;;;;13.68;5.22;;;11.90;99.90;;;11.21;100.00;102210.09;4185099;28;20063;-82
2023/09/30 02:03:07;;;;;;;15.77;5.55;;;11.90;99.90;;;11.19;100.00;102206.75;4188120;28;20025;-82
2023/09/30 02:05:08;;;;;;;15.60;5.22;;;11.90;99.90;;;11.19;100.00;102207.59;4187078;28;20033;-82
2023/09/30 02:07:09;;;;;;;17.20;5.50;;;11.90;99.90;;;11.17;100.00;102206.06;4195984;28;20021;-81
2023/09/30 02:09:10;;;;;;;16.60;7.22;;;11.90;99.90;;;11.14;100.00;102198.38;4186257;28;20090;-82
2023/09/30 02:11:13;;;;;;;11.82;5.18;;;11.90;99.90;;;11.10;100.00;102198.63;4184183;28;20482;-81
2023/09/30 02:13:15;;;;;;;14.90;5.72;;;11.80;99.90;;;11.09;100.00;102202.22;4192824;28;20443;-82
2023/09/30 02:15:16;;;;;;;14.93;5.78;;;11.80;99.90;;;11.09;100.00;102193.44;4189574;28;20092;-82
2023/09/30 02:17:17;;;;;;;12.73;4.90;;;11.80;99.90;;;11.09;100.00;102193.44;4184056;28;20107;-82
2023/09/30 02:19:19;;;;;;;12.13;5.20;;;11.80;99.90;;;11.08;100.00;102191.75;4188379;28;20017;-81
2023/09/30 02:21:21;;;;;;;13.43;5.35;;;11.80;99.90;;;11.05;100.00;102198.13;4185297;28;20025;-82
2023/09/30 02:23:23;;;;;;;17.23;5.43;;;11.70;99.90;;;11.03;100.00;102200.06;4195123;28;20024;-82
2023/09/30 02:25:25;;;;;;;14.50;5.20;;;11.70;99.90;;;11.03;100.00;102200.06;4200448;28;20115;-81
2023/09/30 02:27:25;;;;;;;16.48;6.05;;;11.70;99.90;;;11.02;100.00;102200.19;4201786;28;20032;-82
2023/09/30 02:29:26;;;;;;;12.40;5.60;;;11.70;99.90;;;11.02;100.00;102200.19;4192898;28;20048;-82
2023/09/30 02:31:27;;;;;;;14.32;5.45;;;11.70;99.90;;;11.03;100.00;102194.78;4184070;28;20036;-81
2023/09/30 02:33:28;;;;;;;17.20;5.43;;;11.70;99.90;;;11.02;100.00;102190.47;4199102;28;20029;-81
2023/09/30 02:35:29;;;;;;;17.77;6.15;;;11.70;99.90;;;11.00;100.00;102189.75;4197492;28;20020;-81
2023/09/30 02:37:35;;;;;;;13.88;5.63;;;11.70;99.90;;;10.96;100.00;102184.84;4191240;28;20036;-81
2023/09/30 02:39:37;;;;;;;9.63;4.47;;;11.70;99.90;;;10.94;100.00;102200.81;4183502;28;20044;-81
2023/09/30 02:41:38;;;;;;;10.27;3.63;;;11.70;99.90;;;10.87;100.00;102204.88;4198123;28;20025;-81
2023/09/30 02:43:38;;;;;;;13.13;4.50;;;11.60;99.90;;;10.81;100.00;102194.81;4185158;28;20028;-81
2023/09/30 02:45:39;;;;;;;7.07;3.33;;;11.50;99.90;;;10.77;100.00;102193.41;4192157;28;20071;-82
2023/09/30 02:47:40;;;;;;;11.20;3.67;;;11.50;99.90;;;10.74;100.00;102204.19;4185010;28;20021;-82
2023/09/30 02:49:41;;;;;;;15.93;3.95;;;11.50;99.90;;;10.71;100.00;102199.16;4196725;28;20033;-82
2023/09/30 02:51:42;;;;;;;8.73;4.05;;;11.50;99.90;;;10.68;100.00;102188.00;4185485;28;20052;-82
2023/09/30 02:53:43;;;;;;;7.10;3.30;;;11.40;99.90;;;10.65;100.00;102177.69;4184797;28;20021;-82
2023/09/30 02:55:44;;;;;;;10.00;3.65;;;11.40;99.90;;;10.62;100.00;102194.59;4189836;28;20025;-82
2023/09/30 02:57:46;;;;;;;14.32;4.03;;;11.40;99.90;;;10.61;100.00;102207.91;4196456;28;20043;-82
2023/09/30 02:59:48;;;;;;;8.75;4.03;;;11.40;99.90;;;10.55;100.00;102204.81;4184777;28;20047;-81
2023/09/30 03:01:49;;;;;;;10.27;3.97;;;11.30;99.90;;;10.54;100.00;102199.66;4189849;28;20111;-81
2023/09/30 03:03:49;;;;;;;6.80;3.40;;;11.30;99.90;;;10.50;100.00;102199.06;4183645;28;20071;-82
2023/09/30 03:05:50;;;;;;;10.43;3.72;;;11.30;99.90;;;10.51;100.00;102186.72;4187540;28;20033;-81
2023/09/30 03:07:51;;;;;;;10.93;3.75;;;11.30;99.90;;;10.49;100.00;102178.06;4184633;28;20074;-82
2023/09/30 03:09:54;;;;;;;7.20;3.63;;;11.30;99.90;;;10.54;100.00;102175.91;4183287;28;20116;-82
2023/09/30 03:11:56;;;;;;;12.60;3.65;;;11.30;99.90;;;10.57;100.00;102159.00;4192715;28;20032;-82
2023/09/30 03:13:57;;;;;;;12.75;3.67;;;11.30;99.90;;;10.61;100.00;102145.41;4186008;28;20025;-82
2023/09/30 03:15:58;;;;;;;11.70;3.75;;;11.30;99.90;;;10.64;100.00;102128.50;4202539;28;20056;-81
2023/09/30 03:18:03;;;;;;;14.88;4.28;;;11.30;99.90;;;10.67;100.00;102128.25;4204556;28;20028;-81
2023/09/30 03:20:12;;;;;;;11.65;3.47;;;11.40;99.90;;;10.68;100.00;102128.16;4204497;28;20028;-80
2023/09/30 03:22:12;;;;;;;10.80;3.90;;;11.40;99.90;;;10.65;100.00;102127.56;4204372;28;20064;-81
2023/09/30 03:24:13;;;;;;;9.90;3.72;;;11.40;99.90;;;10.59;100.00;102136.78;4204146;28;20055;-81
2023/09/30 03:26:15;;;;;;;13.63;4.38;;;11.40;99.90;;;10.53;100.00;102137.28;4197780;28;20075;-81
2023/09/30 03:28:16;;;;;;;6.13;2.95;;;11.30;99.90;;;10.46;100.00;102136.94;4187723;28;20032;-81
2023/09/30 03:30:19;;;;;;;7.88;3.25;;;11.20;99.90;;;10.40;100.00;102136.56;4199448;28;20487;-81
2023/09/30 03:32:20;;;;;;;7.75;3.13;;;11.20;99.90;;;10.40;100.00;102141.84;4190119;28;20036;-81
2023/09/30 03:34:21;;;;;;;7.63;3.72;;;11.20;99.90;;;10.38;100.00;102154.31;4198626;28;20025;-81
2023/09/30 03:36:24;;;;;;;8.73;3.13;;;11.20;99.90;;;10.37;100.00;102160.53;4193043;28;20021;-81
2023/09/30 03:38:26;;;;;;;10.57;4.38;;;11.10;99.90;;;10.37;100.00;102152.63;4186170;28;20504;-81
2023/09/30 03:40:27;;;;;;;15.32;4.18;;;11.10;99.90;;;10.39;100.00;102145.47;4187728;28;20029;-81
2023/09/30 03:42:29;;;;;;;13.60;4.72;;;11.10;99.90;;;10.37;100.00;102120.97;4194848;28;20025;-81
2023/09/30 03:44:30;;;;;;;13.25;4.00;;;11.10;99.90;;;10.42;100.00;102124.94;4204193;28;20495;-81
2023/09/30 03:46:31;;;;;;;11.60;3.42;;;11.10;99.90;;;10.42;100.00;102122.28;4189846;28;20041;-81
2023/09/30 03:48:32;;;;;;;10.80;4.63;;;11.10;99.90;;;10.42;100.00;102130.19;4190547;28;20088;-82
2023/09/30 03:50:33;;;;;;;10.18;3.63;;;11.20;99.90;;;10.41;100.00;102125.06;4191486;28;20033;-82
2023/09/30 03:52:34;;;;;;;8.50;3.35;;;11.20;99.90;;;10.38;100.00;102125.31;4187336;28;20033;-82
2023/09/30 03:54:35;;;;;;;9.75;3.50;;;11.10;99.90;;;10.37;100.00;102134.16;4190397;28;20017;-81
2023/09/30 03:56:38;;;;;;;10.43;4.05;;;11.10;99.90;;;10.34;100.00;102142.31;4190150;28;20032;-82
2023/09/30 03:58:41;;;;;;;7.70;3.55;;;11.10;99.90;;;10.28;100.00;102132.25;4187353;28;20064;-81
2023/09/30 04:00:42;;;;;;;12.50;4.15;;;11.10;99.90;;;10.28;100.00;102146.28;4193444;28;20075;-81
2023/09/30 04:02:43;;;;;;;12.32;3.47;;;11.00;99.90;;;10.28;100.00;102150.72;4187141;28;20037;-81
2023/09/30 04:04:46;;;;;;;7.95;3.72;;;11.00;99.90;;;10.27;100.00;102141.97;4188036;28;20108;-82
2023/09/30 04:06:47;;;;;;;10.05;2.97;;;11.00;99.90;;;10.26;100.00;102137.66;4187228;28;20561;-81
2023/09/30 04:08:48;;;;;;;10.90;4.03;;;11.00;99.90;;;10.26;100.00;102136.81;4186897;28;20180;-81
2023/09/30 04:10:49;;;;;;;7.82;3.42;;;11.00;99.90;;;10.25;100.00;102133.34;4187013;28;20033;-81
2023/09/30 04:12:50;;;;;;;8.35;2.90;;;11.00;99.90;;;10.25;100.00;102135.13;4189600;28;20033;-81
2023/09/30 04:14:51;;;;;;;6.95;3.25;;;11.00;99.90;;;10.22;100.00;102127.44;4192379;28;20016;-81
2023/09/30 04:16:54;;;;;;;11.43;3.08;;;11.00;99.90;;;10.21;100.00;102117.88;4194371;28;20036;-81
2023/09/30 04:18:55;;;;;;;9.68;3.78;;;11.00;99.90;;;10.19;100.00;102117.16;4197013;28;20025;-82
2023/09/30 04:20:56;;;;;;;8.30;3.38;;;10.90;99.90;;;10.18;100.00;102115.50;4187009;28;20021;-81
2023/09/30 04:22:57;;;;;;;8.98;2.92;;;11.00;99.90;;;10.16;100.00;102109.47;4193110;28;20037;-81
2023/09/30 04:24:58;;;;;;;11.30;3.42;;;10.90;99.90;;;10.13;100.00;102104.41;4192003;28;20020;-80
2023/09/30 04:27:03;;;;;;;8.05;2.97;;;10.90;99.90;;;10.12;100.00;102098.31;4189434;28;20550;-81
2023/09/30 04:29:04;;;;;;;9.90;3.95;;;10.90;99.90;;;10.08;100.00;102104.78;4186910;28;20051;-81
2023/09/30 04:31:07;;;;;;;9.70;3.63;;;10.90;99.90;;;10.11;100.00;102109.81;4193458;28;20029;-81
2023/09/30 04:33:08;;;;;;;8.57;2.92;;;10.90;99.90;;;10.11;100.00;102112.44;4186745;28;20021;-81
2023/09/30 04:35:09;;;;;;;7.88;3.63;;;10.80;99.90;;;10.08;100.00;102114.47;4192887;28;20031;-81
2023/09/30 04:37:11;;;;;;;10.70;3.03;;;10.80;99.90;;;10.06;100.00;102111.13;4190377;28;20112;-81
2023/09/30 04:39:12;;;;;;;7.63;3.08;;;10.80;99.90;;;10.05;100.00;102120.84;4186539;28;20065;-82
2023/09/30 04:41:15;;;;;;;7.15;3.17;;;10.80;99.90;;;10.04;100.00;102121.78;4186646;28;20021;-81
2023/09/30 04:43:17;;;;;;;8.00;3.00;;;10.80;99.90;;;10.03;100.00;102128.03;4186605;28;20083;-82
2023/09/30 04:45:24;;;;;;;9.13;3.28;;;10.80;99.90;;;10.00;100.00;102125.63;4199333;28;20107;-82
2023/09/30 04:47:24;;;;;;;7.18;3.55;;;10.80;99.90;;;9.97;100.00;102113.50;4186586;28;20116;-80
2023/09/30 04:49:25;;;;;;;12.90;4.00;;;10.70;99.90;;;9.97;100.00;102117.97;4186494;28;20043;-81
2023/09/30 04:51:27;;;;;;;10.05;3.45;;;10.70;99.90;;;9.96;100.00;102111.84;4199586;28;20527;-81
2023/09/30 04:53:29;;;;;;;11.98;3.42;;;10.70;99.90;;;9.99;100.00;102110.75;4186242;28;20029;-81
2023/09/30 04:55:30;;;;;;;7.18;2.80;;;10.70;99.90;;;9.97;100.00;102108.22;4194924;28;20058;-81
2023/09/30 04:57:31;;;;;;;6.80;2.85;;;10.70;99.90;;;9.94;100.00;102100.59;4186661;28;20033;-81
2023/09/30 04:59:32;;;;;;;11.00;3.35;;;10.70;99.90;;;9.93;100.00;102112.09;4199411;28;20038;-82
2023/09/30 05:01:33;;;;;;;12.23;3.30;;;10.70;99.90;;;9.87;100.00;102117.81;4184967;28;20575;-81
2023/09/30 05:03:35;;;;;;;7.93;3.65;;;10.70;99.90;;;9.84;100.00;102131.25;4186117;28;20067;-81
2023/09/30 05:05:36;;;;;;;8.23;3.10;;;10.60;99.90;;;9.80;100.00;102129.78;4186810;28;20024;-81
2023/09/30 05:07:37;;;;;;;8.65;3.55;;;10.60;99.90;;;9.78;100.00;102122.97;4186092;28;20067;-81
2023/09/30 05:09:38;;;;;;;8.48;2.80;;;10.60;99.90;;;9.77;100.00;102116.84;4186009;28;20021;-81
2023/09/30 05:11:39;;;;;;;10.18;3.63;;;10.60;99.90;;;9.79;100.00;102129.91;4191974;28;20050;-81
2023/09/30 05:13:40;;;;;;;10.98;3.85;;;10.50;99.90;;;9.83;100.00;102136.63;4186094;28;20021;-81
2023/09/30 05:15:41;;;;;;;8.15;3.08;;;10.50;99.90;;;9.82;100.00;102134.94;4197327;28;20043;-81
2023/09/30 05:17:45;;;;;;;7.78;3.38;;;10.60;99.90;;;9.81;100.00;102143.81;4186306;28;20044;-81
2023/09/30 05:19:46;;;;;;;7.90;3.25;;;10.60;99.90;;;9.77;100.00;102148.47;4191964;28;20051;-81
2023/09/30 05:21:47;;;;;;;7.88;2.78;;;10.50;99.90;;;9.76;100.00;102148.59;4186585;28;20033;-82
2023/09/30 05:23:48;;;;;;;7.90;2.92;;;10.50;99.90;;;9.70;100.00;102144.63;4187374;28;20033;-82
2023/09/30 05:25:49;;;;;;;7.55;3.05;;;10.50;99.90;;;9.73;100.00;102160.22;4193782;28;20159;-81
2023/09/30 05:27:50;;;;;;;11.40;3.47;;;10.50;99.90;;;9.72;100.00;102158.53;4186021;28;20484;-81
2023/09/30 05:29:50;;;;;;;14.52;3.45;;;10.50;99.90;;;9.76;100.00;102152.06;4186047;28;20019;-81
2023/09/30 05:31:52;;;;;;;8.63;3.10;;;10.50;99.90;;;9.77;100.00;102142.34;4197800;28;20040;-81
2023/09/30 05:33:52;;;;;;;6.30;2.15;;;10.50;99.90;;;9.78;100.00;102139.63;4185880;28;20021;-81
2023/09/30 05:35:54;;;;;;;5.65;3.20;;;10.50;99.90;;;9.80;100.00;102142.97;4191828;28;20025;-81
2023/09/30 05:37:55;;;;;;;10.48;3.25;;;10.60;99.90;;;9.74;100.00;102132.03;4185593;28;20021;-81
2023/09/30 05:39:57;;;;;;;11.50;3.03;;;10.50;99.90;;;9.76;100.00;102138.91;4197422;28;20112;-81
2023/09/30 05:41:58;;;;;;;7.22;2.80;;;10.50;99.90;;;9.78;100.00;102133.50;4184523;28;20104;-81
2023/09/30 05:43:59;;;;;;;6.75;2.80;;;10.50;99.90;;;9.77;100.00;102127.38;4185806;28;20036;-81
2023/09/30 05:46:00;;;;;;;8.02;2.75;;;10.50;99.90;;;9.81;100.00;102131.47;4198101;28;20020;-81
2023/09/30 05:48:06;;;;;;;7.47;3.17;;;10.60;99.90;;;9.81;100.00;102135.91;4202162;28;20031;-82
2023/09/30 05:50:26;;;;;;;5.72;2.63;;;10.60;99.90;;;9.80;100.00;102113.13;4202189;28;20021;-81
2023/09/30 05:52:27;;;;;;;11.07;3.17;;;10.60;99.90;;;9.77;100.00;102126.53;4179199;28;20033;-81
2023/09/30 05:54:28;;;;;;;8.43;2.17;;;10.50;99.90;;;9.75;100.00;102131.94;4183903;28;20566;-81
2023/09/30 05:56:29;;;;;;;8.30;3.28;;;10.50;99.90;;;9.74;100.00;102132.88;4186416;28;20025;-81
2023/09/30 05:58:30;;;;;;;7.25;3.08;;;10.50;99.90;;;9.72;100.00;102137.44;4185571;28;20029;-81
2023/09/30 06:00:35;;;;;;;11.75;3.70;;;10.50;99.90;;;9.70;100.00;102131.47;4192968;28;20047;-81
2023/09/30 06:02:35;;;;;;;10.88;3.08;;;10.50;99.90;;;9.70;100.00;102131.47;4185505;28;20074;-81
2023/09/30 06:04:36;;;;;;;8.02;3.03;;;10.50;99.90;;;9.73;100.00;102140.94;4199850;28;20029;-81
2023/09/30 06:06:38;;;;;;;6.38;2.97;;;10.50;99.90;;;9.73;100.00;102152.31;4196557;28;20029;-81
2023/09/30 06:08:39;;;;;;;7.82;2.65;;;10.50;99.90;;;9.71;100.00;102159.47;4185136;28;20029;-81
2023/09/30 06:10:44;;;;;;;10.25;2.72;;;10.50;99.90;;;9.68;100.00;102157.06;4185306;28;20535;-81
2023/09/30 06:12:48;;;;;;;8.82;2.78;;;10.50;99.90;;;9.69;100.00;102160.53;4199664;28;20024;-81
2023/09/30 06:14:49;;;;;;;9.32;2.88;;;10.50;99.90;;;9.70;100.00;102178.88;4187519;28;20012;-81
2023/09/30 06:16:50;;;;;;;5.15;2.55;;;10.50;99.90;;;9.72;100.00;102166.44;4192540;28;20032;-81
2023/09/30 06:18:51;;;;;;;11.18;3.53;;;10.50;99.90;;;9.72;100.00;102169.06;4196772;28;20021;-81
2023/09/30 06:20:52;;;;;;;7.97;3.08;;;10.50;99.90;;;9.77;100.00;102169.53;4185110;28;20396;-81
2023/09/30 06:22:53;;;;;;;8.73;2.58;;;10.50;99.90;;;9.76;100.00;102161.78;4183878;28;20064;-81
2023/09/30 06:24:54;;;;;;;6.82;2.92;;;10.50;99.90;;;9.80;100.00;102174.59;4193190;28;20051;-81
2023/09/30 06:26:55;;;;;;;8.02;2.60;;;10.50;99.90;;;9.80;100.00;102157.94;4184030;28;20036;-81
2023/09/30 06:28:56;;;;;;;6.38;2.65;;;10.50;99.90;;;9.81;100.00;102163.09;4201114;28;20025;-81
2023/09/30 06:30:57;;;;;;;5.25;2.60;;;10.50;99.90;;;9.83;100.00;102174.34;4196238;28;20435;-81
2023/09/30 06:33:04;;;;;;;6.07;2.40;;;10.60;99.90;;;9.84;100.00;102180.47;4185060;28;20025;-81
2023/09/30 06:35:06;;;;;;;9.50;2.63;;;10.60;99.90;;;9.86;100.00;102174.13;4196828;28;20079;-81
2023/09/30 06:37:08;;;;;;;7.55;3.03;;;10.60;99.90;;;9.92;100.00;102178.94;4200491;28;20050;-81
2023/09/30 06:39:09;;;;;;;6.63;2.97;;;10.60;99.90;;;9.96;100.00;102175.13;4184866;28;20048;-81
2023/09/30 06:41:15;;;;;;;7.68;2.80;;;10.70;99.90;;;10.01;100.00;102177.38;4185049;28;20021;-81
2023/09/30 06:43:16;;;;;;;5.88;2.72;;;10.70;99.90;;;10.02;100.00;102176.44;4184081;28;20036;-81
2023/09/30 06:45:17;;;;;;;4.57;2.17;;;10.70;99.90;;;10.06;100.00;102172.63;4196935;28;20029;-81
2023/09/30 06:47:18;;;;;;;8.43;2.72;;;10.80;99.90;;;10.09;100.00;102174.19;4192032;28;20511;-81
2023/09/30 06:49:19;;;;;;;9.50;2.70;;;10.80;99.90;;;10.15;100.00;102177.22;4192421;28;20051;-80
2023/09/30 06:51:20;;;;;;;5.35;2.30;;;10.80;99.90;;;10.19;100.00;102167.25;4188475;28;20037;-81
2023/09/30 06:53:23;;;;;;;4.65;2.30;;;10.90;99.90;;;10.24;100.00;102175.66;4191230;28;20078;-81
2023/09/30 06:55:27;;;;;;;7.95;2.40;;;10.90;99.90;;;10.27;100.00;102173.63;4197140;28;20480;-81
2023/09/30 06:57:28;;;;;;;5.80;2.73;;;11.00;99.90;;;10.30;100.00;102173.41;4188357;28;20408;-81
2023/09/30 06:59:28;;;;;;;7.82;2.67;;;11.00;99.90;;;10.33;100.00;102178.44;4188293;28;20025;-81
2023/09/30 07:01:29;;;;;;;6.85;2.80;;;11.00;99.90;;;10.34;100.00;102174.81;4188344;28;20035;-81
2023/09/30 07:03:30;;;;;;;7.32;2.53;;;11.00;99.90;;;10.37;100.00;102177.22;4194117;28;20024;-81
2023/09/30 07:05:31;;;;;;;6.80;2.42;;;11.00;99.90;;;10.39;100.00;102182.38;4188275;28;20455;-81
2023/09/30 07:07:32;;;;;;;5.15;2.38;;;11.10;99.90;;;10.44;100.00;102180.22;4200246;28;20024;-81
2023/09/30 07:09:33;;;;;;;8.65;2.75;;;11.10;99.90;;;10.46;100.00;102178.28;4187768;28;20036;-81
2023/09/30 07:11:34;;;;;;;4.32;2.25;;;11.20;99.90;;;10.49;100.00;102176.25;4193140;28;20032;-81
2023/09/30 07:13:35;;;;;;;8.15;2.90;;;11.20;99.90;;;10.57;100.00;102180.09;4186765;28;20033;-81
2023/09/30 07:15:36;;;;;;;7.43;2.80;;;11.30;99.90;;;10.61;100.00;102177.09;4200835;28;20108;-81
2023/09/30 07:17:37;;;;;;;5.38;2.47;;;11.30;99.90;;;10.65;100.00;102183.81;4204401;28;20044;-81
2023/09/30 07:19:38;;;;;;;8.35;3.47;;;11.30;99.90;;;10.73;100.00;102189.31;4204538;28;20052;-82
2023/09/30 07:21:39;;;;;;;8.82;3.63;;;11.40;99.90;;;10.79;100.00;102186.19;4204483;28;20047;-81
2023/09/30 07:23:41;;;;;;;7.60;2.80;;;11.40;99.90;;;10.84;100.00;102184.00;4204101;28;20028;-82
2023/09/30 07:25:42;;;;;;;8.70;3.30;;;11.50;99.90;;;10.91;100.00;102187.84;4195460;28;20445;-82
2023/09/30 07:27:47;;;;;;;8.98;4.35;;;11.60;99.90;;;10.95;100.00;102181.38;4188060;28;20024;-82
2023/09/30 07:29:48;;;;;;;7.70;3.03;;;11.70;99.90;;;11.04;100.00;102191.19;4195584;28;20047;-81
2023/09/30 07:31:50;;;;;;;6.00;3.15;;;11.70;99.90;;;11.10;100.00;102201.25;4186318;28;20021;-81
2023/09/30 07:33:52;;;;;;;9.60;3.47;;;11.80;99.90;;;11.15;100.00;102192.09;4196074;28;20025;-82
2023/09/30 07:35:55;;;;;;;10.10;4.38;;;11.80;99.90;;;11.20;100.00;102203.97;4191686;28;20021;-82
2023/09/30 07:37:57;;;;;;;6.72;2.97;;;11.90;99.90;;;11.26;100.00;102192.09;4190019;28;20013;-82
2023/09/30 07:39:58;;;;;;;9.25;3.38;;;12.00;99.90;;;11.30;100.00;102191.72;4198906;28;20029;-82
2023/09/30 07:41:59;;;;;;;8.80;3.08;;;12.00;99.90;;;11.34;100.00;102192.31;4202388;28;20044;-82
2023/09/30 07:44:00;;;;;;;8.65;3.08;;;12.10;99.90;;;11.36;100.00;102190.34;4197637;28;20029;-82
2023/09/30 07:46:07;;;;;;;4.75;2.45;;;12.10;99.90;;;11.40;100.00;102190.00;4187536;28;20447;-82
2023/09/30 07:48:09;;;;;;;5.53;2.75;;;12.10;99.90;;;11.46;100.00;102191.28;4199745;28;20042;-81
2023/09/30 07:50:11;;;;;;;5.38;2.50;;;12.20;99.90;;;11.48;100.00;102190.19;4186165;28;20120;-82
2023/09/30 07:52:12;;;;;;;8.70;3.15;;;12.20;99.90;;;11.54;100.00;102194.97;4186366;28;20025;-82
2023/09/30 07:54:13;;;;;;;9.63;3.45;;;12.30;99.90;;;11.58;100.00;102187.63;4191510;28;20036;-81
2023/09/30 07:56:14;;;;;;;8.05;3.30;;;12.30;99.90;;;11.64;100.00;102200.34;4199368;28;20036;-82
2023/09/30 07:58:15;;;;;;;8.02;3.35;;;12.40;99.90;;;11.68;100.00;102194.66;4187147;28;20027;-81
2023/09/30 08:00:16;;;;;;;8.63;3.28;;;12.40;99.90;;;11.75;100.00;102192.38;4196564;28;20017;-81
2023/09/30 08:02:17;;;;;;;7.55;3.22;;;12.50;99.90;;;11.81;100.00;102197.16;4193095;28;20091;-82
2023/09/30 08:04:19;;;;;;;6.97;2.50;;;12.50;99.90;;;11.89;100.00;102204.44;4189397;28;20020;-81
2023/09/30 08:06:20;;;;;;;7.30;3.47;;;12.60;99.90;;;11.94;100.00;102205.75;4187116;28;20029;-81
2023/09/30 08:08:22;;;;;;;9.25;3.63;;;12.70;99.90;;;12.01;100.00;102193.66;4187081;28;20040;-81
2023/09/30 08:10:23;;;;;;;10.57;3.40;;;12.70;99.90;;;12.08;100.00;102194.00;4195802;28;20032;-81
2023/09/30 08:12:23;;;;;;;7.53;2.95;;;12.80;99.90;;;12.16;100.00;102197.66;4185851;28;20090;-80
2023/09/30 08:14:24;;;;;;;4.90;2.75;;;12.90;99.90;;;12.23;100.00;102199.78;4202957;28;20044;-79
2023/09/30 08:16:26;;;;;;;7.50;3.20;;;13.00;99.90;;;12.29;100.00;102192.16;4197325;28;20028;-80
2023/09/30 08:18:27;;;;;;;9.00;4.15;;;13.00;99.90;;;12.35;100.00;102191.63;4187017;28;20025;-80
2023/09/30 08:20:28;;;;;;;8.00;3.55;;;13.10;99.90;;;12.42;100.00;102195.44;4187098;28;20035;-78